sensor_id;sensor_type;location;lat;lon;timestamp;pressure;altitude;pressure_sealevel;temperature;humidity
20628;BME280;10473;42.734;24.258;2023-07-16T00:00:08;92306.59;;;24.93;64.74
20628;BME280;10473;42.734;24.258;2023-07-16T00:02:37;92307.97;;;24.98;65.00
20628;BME280;10473;42.734;24.258;2023-07-16T00:05:08;92299.81;;;24.98;65.02
20628;BME280;10473;42.734;24.258;2023-07-16T00:07:36;92306.94;;;25.04;64.40
20628;BME280;10473;42.734;24.258;2023-07-16T00:10:04;92305.88;;;25.02;64.55
20628;BME280;10473;42.734;24.258;2023-07-16T00:12:36;92290.03;;;25.00;64.42
20628;BME280;10473;42.734;24.258;2023-07-16T00:15:04;92303.03;;;25.05;64.38
20628;BME280;10473;42.734;24.258;2023-07-16T00:17:34;92289.44;;;24.97;64.31
20628;BME280;10473;42.734;24.258;2023-07-16T00:20:02;92301.34;;;24.99;64.17
20628;BME280;10473;42.734;24.258;2023-07-16T00:22:30;92307.34;;;24.94;64.54
20628;BME280;10473;42.734;24.258;2023-07-16T00:24:58;92296.75;;;24.87;64.66
20628;BME280;10473;42.734;24.258;2023-07-16T00:27:25;92292.84;;;24.88;64.65
20628;BME280;10473;42.734;24.258;2023-07-16T00:29:53;92289.47;;;24.75;65.28
20628;BME280;10473;42.734;24.258;2023-07-16T00:32:21;92297.28;;;24.73;65.29
20628;BME280;10473;42.734;24.258;2023-07-16T00:34:50;92289.88;;;24.64;66.37
20628;BME280;10473;42.734;24.258;2023-07-16T00:37:18;92304.47;;;24.67;65.60
20628;BME280;10473;42.734;24.258;2023-07-16T00:39:45;92298.28;;;24.66;65.57
20628;BME280;10473;42.734;24.258;2023-07-16T00:42:13;92297.59;;;24.53;66.82
20628;BME280;10473;42.734;24.258;2023-07-16T00:44:41;92293.56;;;24.58;65.33
20628;BME280;10473;42.734;24.258;2023-07-16T00:47:09;92289.34;;;24.57;65.47
20628;BME280;10473;42.734;24.258;2023-07-16T00:49:37;92290.47;;;24.47;66.61
20628;BME280;10473;42.734;24.258;2023-07-16T00:52:09;92290.41;;;24.16;66.96
20628;BME280;10473;42.734;24.258;2023-07-16T00:54:39;92295.13;;;24.25;66.19
20628;BME280;10473;42.734;24.258;2023-07-16T00:57:07;92293.19;;;24.25;66.70
20628;BME280;10473;42.734;24.258;2023-07-16T00:59:35;92298.41;;;24.20;66.27
20628;BME280;10473;42.734;24.258;2023-07-16T01:02:03;92293.25;;;24.13;66.63
20628;BME280;10473;42.734;24.258;2023-07-16T01:04:31;92299.41;;;24.13;66.31
20628;BME280;10473;42.734;24.258;2023-07-16T01:07:01;92293.25;;;24.13;66.40
20628;BME280;10473;42.734;24.258;2023-07-16T01:09:34;92292.28;;;24.07;67.05
20628;BME280;10473;42.734;24.258;2023-07-16T01:12:05;92291.09;;;24.08;66.86
20628;BME280;10473;42.734;24.258;2023-07-16T01:14:33;92296.50;;;24.08;67.07
20628;BME280;10473;42.734;24.258;2023-07-16T01:17:04;92271.09;;;23.93;67.32
20628;BME280;10473;42.734;24.258;2023-07-16T01:19:33;92295.88;;;24.04;66.77
20628;BME280;10473;42.734;24.258;2023-07-16T01:22:15;92285.28;;;23.97;67.50
20628;BME280;10473;42.734;24.258;2023-07-16T01:25:10;92279.88;;;23.97;67.29
20628;BME280;10473;42.734;24.258;2023-07-16T01:28:06;92278.25;;;23.99;67.33
20628;BME280;10473;42.734;24.258;2023-07-16T01:30:44;92292.97;;;23.98;67.09
20628;BME280;10473;42.734;24.258;2023-07-16T01:33:13;92279.00;;;23.87;67.03
20628;BME280;10473;42.734;24.258;2023-07-16T01:35:43;92274.38;;;23.75;68.26
20628;BME280;10473;42.734;24.258;2023-07-16T01:38:12;92264.44;;;23.72;67.77
20628;BME280;10473;42.734;24.258;2023-07-16T01:40:40;92271.25;;;23.77;67.85
20628;BME280;10473;42.734;24.258;2023-07-16T01:43:08;92275.50;;;23.65;68.44
20628;BME280;10473;42.734;24.258;2023-07-16T01:45:35;92278.41;;;23.71;67.78
20628;BME280;10473;42.734;24.258;2023-07-16T01:48:13;92286.84;;;23.73;67.91
20628;BME280;10473;42.734;24.258;2023-07-16T01:50:42;92282.94;;;23.74;67.86
20628;BME280;10473;42.734;24.258;2023-07-16T01:53:09;92272.75;;;23.78;68.25
20628;BME280;10473;42.734;24.258;2023-07-16T01:55:37;92281.94;;;23.80;67.59
20628;BME280;10473;42.734;24.258;2023-07-16T01:58:05;92267.59;;;23.71;67.20
20628;BME280;10473;42.734;24.258;2023-07-16T02:00:33;92272.13;;;23.74;67.38
20628;BME280;10473;42.734;24.258;2023-07-16T02:03:00;92274.09;;;23.73;66.92
20628;BME280;10473;42.734;24.258;2023-07-16T02:05:31;92267.69;;;23.67;66.51
20628;BME280;10473;42.734;24.258;2023-07-16T02:07:59;92275.81;;;23.67;67.16
20628;BME280;10473;42.734;24.258;2023-07-16T02:10:27;92276.69;;;23.64;66.80
20628;BME280;10473;42.734;24.258;2023-07-16T02:12:57;92271.38;;;23.61;67.22
20628;BME280;10473;42.734;24.258;2023-07-16T02:15:25;92278.31;;;23.62;67.46
20628;BME280;10473;42.734;24.258;2023-07-16T02:17:52;92261.66;;;23.51;67.44
20628;BME280;10473;42.734;24.258;2023-07-16T02:20:20;92272.69;;;23.56;67.63
20628;BME280;10473;42.734;24.258;2023-07-16T02:22:49;92262.66;;;23.57;67.36
20628;BME280;10473;42.734;24.258;2023-07-16T02:25:17;92269.69;;;23.54;67.34
20628;BME280;10473;42.734;24.258;2023-07-16T02:27:47;92270.75;;;23.57;67.76
20628;BME280;10473;42.734;24.258;2023-07-16T02:30:15;92275.19;;;23.51;68.46
20628;BME280;10473;42.734;24.258;2023-07-16T02:32:43;92275.44;;;23.44;68.76
20628;BME280;10473;42.734;24.258;2023-07-16T02:35:11;92266.78;;;23.49;67.96
20628;BME280;10473;42.734;24.258;2023-07-16T02:37:39;92264.59;;;23.44;68.83
20628;BME280;10473;42.734;24.258;2023-07-16T02:40:08;92265.47;;;23.41;68.90
20628;BME280;10473;42.734;24.258;2023-07-16T02:42:36;92273.50;;;23.44;67.74
20628;BME280;10473;42.734;24.258;2023-07-16T02:45:05;92268.28;;;23.50;67.27
20628;BME280;10473;42.734;24.258;2023-07-16T02:47:35;92259.19;;;23.44;67.13
20628;BME280;10473;42.734;24.258;2023-07-16T02:50:04;92275.44;;;23.44;67.44
20628;BME280;10473;42.734;24.258;2023-07-16T02:52:32;92261.81;;;23.35;67.65
20628;BME280;10473;42.734;24.258;2023-07-16T02:55:00;92276.53;;;23.34;67.32
20628;BME280;10473;42.734;24.258;2023-07-16T02:57:29;92272.88;;;23.28;67.94
20628;BME280;10473;42.734;24.258;2023-07-16T02:59:57;92275.47;;;23.19;68.12
20628;BME280;10473;42.734;24.258;2023-07-16T03:02:25;92270.16;;;23.15;68.12
20628;BME280;10473;42.734;24.258;2023-07-16T03:04:52;92272.63;;;23.10;68.32
20628;BME280;10473;42.734;24.258;2023-07-16T03:07:20;92276.84;;;23.11;67.99
20628;BME280;10473;42.734;24.258;2023-07-16T03:09:48;92267.34;;;23.06;68.15
20628;BME280;10473;42.734;24.258;2023-07-16T03:12:16;92269.81;;;23.01;68.37
20628;BME280;10473;42.734;24.258;2023-07-16T03:14:45;92265.28;;;22.98;68.36
20628;BME280;10473;42.734;24.258;2023-07-16T03:17:13;92271.31;;;23.02;68.55
20628;BME280;10473;42.734;24.258;2023-07-16T03:19:41;92271.00;;;23.00;68.31
20628;BME280;10473;42.734;24.258;2023-07-16T03:22:09;92268.00;;;22.98;68.98
20628;BME280;10473;42.734;24.258;2023-07-16T03:24:37;92267.53;;;22.87;69.90
20628;BME280;10473;42.734;24.258;2023-07-16T03:27:05;92269.06;;;22.75;71.48
20628;BME280;10473;42.734;24.258;2023-07-16T03:29:33;92272.63;;;22.85;69.90
20628;BME280;10473;42.734;24.258;2023-07-16T03:32:04;92268.72;;;22.86;69.73
20628;BME280;10473;42.734;24.258;2023-07-16T03:34:32;92269.69;;;22.92;69.67
20628;BME280;10473;42.734;24.258;2023-07-16T03:37:00;92270.59;;;23.01;68.75
20628;BME280;10473;42.734;24.258;2023-07-16T03:39:30;92275.13;;;23.04;69.10
20628;BME280;10473;42.734;24.258;2023-07-16T03:41:57;92269.06;;;23.00;68.98
20628;BME280;10473;42.734;24.258;2023-07-16T03:44:25;92272.19;;;22.99;68.55
20628;BME280;10473;42.734;24.258;2023-07-16T03:46:53;92278.03;;;23.10;68.94
20628;BME280;10473;42.734;24.258;2023-07-16T03:49:22;92284.94;;;23.11;69.07
20628;BME280;10473;42.734;24.258;2023-07-16T03:51:50;92287.34;;;23.09;68.57
20628;BME280;10473;42.734;24.258;2023-07-16T03:54:17;92288.84;;;23.10;69.27
20628;BME280;10473;42.734;24.258;2023-07-16T03:56:45;92295.03;;;23.10;69.34
20628;BME280;10473;42.734;24.258;2023-07-16T03:59:13;92286.56;;;23.08;69.25
20628;BME280;10473;42.734;24.258;2023-07-16T04:01:40;92283.00;;;22.99;69.77
20628;BME280;10473;42.734;24.258;2023-07-16T04:04:23;92276.09;;;22.98;69.86
20628;BME280;10473;42.734;24.258;2023-07-16T04:06:52;92291.69;;;23.19;69.35
20628;BME280;10473;42.734;24.258;2023-07-16T04:09:20;92295.16;;;23.32;69.01
20628;BME280;10473;42.734;24.258;2023-07-16T04:11:47;92300.97;;;23.43;69.37
20628;BME280;10473;42.734;24.258;2023-07-16T04:14:15;92303.41;;;23.62;69.17
20628;BME280;10473;42.734;24.258;2023-07-16T04:16:43;92302.84;;;23.80;68.75
20628;BME280;10473;42.734;24.258;2023-07-16T04:19:11;92311.16;;;23.98;68.67
20628;BME280;10473;42.734;24.258;2023-07-16T04:21:42;92305.66;;;24.23;66.17
20628;BME280;10473;42.734;24.258;2023-07-16T04:24:09;92307.88;;;24.37;67.61
20628;BME280;10473;42.734;24.258;2023-07-16T04:26:37;92311.88;;;24.54;66.12
20628;BME280;10473;42.734;24.258;2023-07-16T04:29:05;92302.34;;;24.62;66.88
20628;BME280;10473;42.734;24.258;2023-07-16T04:31:33;92309.69;;;24.83;66.43
20628;BME280;10473;42.734;24.258;2023-07-16T04:34:01;92303.94;;;25.02;64.21
20628;BME280;10473;42.734;24.258;2023-07-16T04:36:29;92305.66;;;25.18;65.19
20628;BME280;10473;42.734;24.258;2023-07-16T04:38:58;92307.97;;;25.29;63.35
20628;BME280;10473;42.734;24.258;2023-07-16T04:41:26;92312.44;;;25.44;62.41
20628;BME280;10473;42.734;24.258;2023-07-16T04:43:57;92310.94;;;25.61;63.50
20628;BME280;10473;42.734;24.258;2023-07-16T04:46:24;92307.97;;;25.77;62.46
20628;BME280;10473;42.734;24.258;2023-07-16T04:48:55;92311.31;;;25.90;62.16
20628;BME280;10473;42.734;24.258;2023-07-16T04:51:23;92308.66;;;25.99;60.74
20628;BME280;10473;42.734;24.258;2023-07-16T04:53:53;92322.56;;;26.19;63.56
20628;BME280;10473;42.734;24.258;2023-07-16T04:56:28;92325.88;;;26.32;62.52
20628;BME280;10473;42.734;24.258;2023-07-16T04:58:58;92323.16;;;26.41;59.31
20628;BME280;10473;42.734;24.258;2023-07-16T05:01:28;92327.97;;;26.55;62.73
20628;BME280;10473;42.734;24.258;2023-07-16T05:03:57;92322.53;;;26.10;59.30
20628;BME280;10473;42.734;24.258;2023-07-16T05:06:25;92327.66;;;26.17;60.14
20628;BME280;10473;42.734;24.258;2023-07-16T05:08:53;92332.28;;;25.90;60.56
20628;BME280;10473;42.734;24.258;2023-07-16T05:11:20;92341.56;;;26.10;60.22
20628;BME280;10473;42.734;24.258;2023-07-16T05:13:50;92329.47;;;25.93;60.09
20628;BME280;10473;42.734;24.258;2023-07-16T05:16:17;92337.06;;;26.34;59.29
20628;BME280;10473;42.734;24.258;2023-07-16T05:18:45;92333.00;;;26.66;61.32
20628;BME280;10473;42.734;24.258;2023-07-16T05:21:13;92332.22;;;26.83;60.50
20628;BME280;10473;42.734;24.258;2023-07-16T05:23:41;92338.38;;;27.20;58.76
20628;BME280;10473;42.734;24.258;2023-07-16T05:26:09;92340.28;;;27.37;58.08
20628;BME280;10473;42.734;24.258;2023-07-16T05:28:39;92333.00;;;27.34;58.59
20628;BME280;10473;42.734;24.258;2023-07-16T05:31:08;92347.41;;;27.08;58.86
20628;BME280;10473;42.734;24.258;2023-07-16T05:33:41;92330.13;;;26.78;59.94
20628;BME280;10473;42.734;24.258;2023-07-16T05:36:10;92355.47;;;27.02;58.88
20628;BME280;10473;42.734;24.258;2023-07-16T05:38:38;92348.31;;;27.23;58.79
20628;BME280;10473;42.734;24.258;2023-07-16T05:41:06;92328.16;;;27.38;57.45
20628;BME280;10473;42.734;24.258;2023-07-16T05:43:35;92349.56;;;27.54;57.63
20628;BME280;10473;42.734;24.258;2023-07-16T05:46:03;92356.25;;;27.53;57.32
20628;BME280;10473;42.734;24.258;2023-07-16T05:48:32;92346.66;;;27.25;58.29
20628;BME280;10473;42.734;24.258;2023-07-16T05:51:00;92350.59;;;27.24;60.56
20628;BME280;10473;42.734;24.258;2023-07-16T05:53:28;92357.78;;;27.45;58.59
20628;BME280;10473;42.734;24.258;2023-07-16T05:55:56;92336.78;;;26.77;59.00
20628;BME280;10473;42.734;24.258;2023-07-16T05:58:24;92354.22;;;27.12;59.21
20628;BME280;10473;42.734;24.258;2023-07-16T06:00:54;92355.94;;;26.83;60.17
20628;BME280;10473;42.734;24.258;2023-07-16T06:03:22;92351.56;;;26.76;60.45
20628;BME280;10473;42.734;24.258;2023-07-16T06:05:53;92354.13;;;26.89;60.16
20628;BME280;10473;42.734;24.258;2023-07-16T06:08:21;92355.47;;;26.84;60.99
20628;BME280;10473;42.734;24.258;2023-07-16T06:10:50;92350.94;;;26.81;61.63
20628;BME280;10473;42.734;24.258;2023-07-16T06:13:18;92359.41;;;26.83;60.74
20628;BME280;10473;42.734;24.258;2023-07-16T06:15:47;92349.13;;;26.51;62.18
20628;BME280;10473;42.734;24.258;2023-07-16T06:18:14;92359.41;;;26.92;61.97
20628;BME280;10473;42.734;24.258;2023-07-16T06:20:44;92351.53;;;26.85;60.77
20628;BME280;10473;42.734;24.258;2023-07-16T06:23:18;92338.53;;;26.98;61.44
20628;BME280;10473;42.734;24.258;2023-07-16T06:25:47;92353.88;;;27.37;60.43
20628;BME280;10473;42.734;24.258;2023-07-16T06:28:16;92351.59;;;27.77;61.02
20628;BME280;10473;42.734;24.258;2023-07-16T06:30:46;92360.63;;;27.92;59.43
20628;BME280;10473;42.734;24.258;2023-07-16T06:33:14;92359.66;;;28.04;57.72
20628;BME280;10473;42.734;24.258;2023-07-16T06:35:44;92357.31;;;28.12;57.88
20628;BME280;10473;42.734;24.258;2023-07-16T06:38:14;92358.22;;;28.18;59.34
20628;BME280;10473;42.734;24.258;2023-07-16T06:40:46;92352.31;;;28.19;58.37
20628;BME280;10473;42.734;24.258;2023-07-16T06:43:16;92363.94;;;27.96;58.20
20628;BME280;10473;42.734;24.258;2023-07-16T06:45:50;92331.84;;;28.00;58.26
20628;BME280;10473;42.734;24.258;2023-07-16T06:48:27;92334.97;;;28.08;58.70
20628;BME280;10473;42.734;24.258;2023-07-16T06:50:55;92351.88;;;28.35;56.91
20628;BME280;10473;42.734;24.258;2023-07-16T06:53:24;92351.63;;;28.57;58.56
20628;BME280;10473;42.734;24.258;2023-07-16T06:55:51;92353.81;;;28.82;57.26
20628;BME280;10473;42.734;24.258;2023-07-16T06:58:31;92345.00;;;29.01;57.74
20628;BME280;10473;42.734;24.258;2023-07-16T07:01:07;92351.81;;;29.20;55.83
20628;BME280;10473;42.734;24.258;2023-07-16T07:03:41;92359.16;;;29.14;56.41
20628;BME280;10473;42.734;24.258;2023-07-16T07:06:13;92333.53;;;29.12;54.87
20628;BME280;10473;42.734;24.258;2023-07-16T07:08:45;92351.81;;;29.06;54.86
20628;BME280;10473;42.734;24.258;2023-07-16T07:11:14;92349.28;;;28.79;56.42
20628;BME280;10473;42.734;24.258;2023-07-16T07:13:42;92345.69;;;29.25;57.11
20628;BME280;10473;42.734;24.258;2023-07-16T07:16:13;92340.69;;;29.38;56.17
20628;BME280;10473;42.734;24.258;2023-07-16T07:18:41;92348.22;;;29.43;53.91
20628;BME280;10473;42.734;24.258;2023-07-16T07:21:14;92340.69;;;29.24;54.78
20628;BME280;10473;42.734;24.258;2023-07-16T07:23:58;92346.31;;;29.64;55.45
20628;BME280;10473;42.734;24.258;2023-07-16T07:26:29;92324.06;;;28.84;55.92
20628;BME280;10473;42.734;24.258;2023-07-16T07:28:59;92338.63;;;29.04;54.33
20628;BME280;10473;42.734;24.258;2023-07-16T07:31:29;92351.22;;;29.45;55.96
20628;BME280;10473;42.734;24.258;2023-07-16T07:34:06;92343.44;;;29.67;56.01
20628;BME280;10473;42.734;24.258;2023-07-16T07:36:37;92337.47;;;29.69;55.47
20628;BME280;10473;42.734;24.258;2023-07-16T07:39:09;92327.88;;;29.44;54.94
20628;BME280;10473;42.734;24.258;2023-07-16T07:41:41;92327.56;;;29.71;54.87
20628;BME280;10473;42.734;24.258;2023-07-16T07:44:12;92331.34;;;30.08;52.79
20628;BME280;10473;42.734;24.258;2023-07-16T07:46:41;92332.06;;;30.23;52.16
20628;BME280;10473;42.734;24.258;2023-07-16T07:49:09;92327.81;;;30.42;52.38
20628;BME280;10473;42.734;24.258;2023-07-16T07:51:37;92294.19;;;30.16;52.26
20628;BME280;10473;42.734;24.258;2023-07-16T07:54:10;92315.88;;;30.05;49.79
20628;BME280;10473;42.734;24.258;2023-07-16T07:56:38;92334.31;;;30.45;50.88
20628;BME280;10473;42.734;24.258;2023-07-16T07:59:06;92325.22;;;30.33;50.10
20628;BME280;10473;42.734;24.258;2023-07-16T08:01:34;92328.88;;;30.10;51.60
20628;BME280;10473;42.734;24.258;2023-07-16T08:04:05;92335.41;;;30.33;50.87
20628;BME280;10473;42.734;24.258;2023-07-16T08:06:41;92336.41;;;30.55;48.97
20628;BME280;10473;42.734;24.258;2023-07-16T08:09:11;92332.75;;;30.78;50.19
20628;BME280;10473;42.734;24.258;2023-07-16T08:11:39;92334.69;;;30.98;49.34
20628;BME280;10473;42.734;24.258;2023-07-16T08:14:07;92342.66;;;31.21;48.94
20628;BME280;10473;42.734;24.258;2023-07-16T08:16:35;92342.34;;;31.39;48.52
20628;BME280;10473;42.734;24.258;2023-07-16T08:19:05;92337.25;;;31.07;48.57
20628;BME280;10473;42.734;24.258;2023-07-16T08:21:43;92314.66;;;30.86;49.37
20628;BME280;10473;42.734;24.258;2023-07-16T08:24:15;92326.03;;;31.05;49.42
20628;BME280;10473;42.734;24.258;2023-07-16T08:26:43;92347.81;;;31.39;49.53
20628;BME280;10473;42.734;24.258;2023-07-16T08:29:11;92346.56;;;31.71;49.18
20628;BME280;10473;42.734;24.258;2023-07-16T08:31:39;92341.25;;;31.93;47.55
20628;BME280;10473;42.734;24.258;2023-07-16T08:34:07;92341.72;;;31.86;47.94
20628;BME280;10473;42.734;24.258;2023-07-16T08:36:39;92328.75;;;31.25;48.40
20628;BME280;10473;42.734;24.258;2023-07-16T08:39:09;92328.66;;;30.68;50.83
20628;BME280;10473;42.734;24.258;2023-07-16T08:41:39;92337.25;;;30.61;50.74
20628;BME280;10473;42.734;24.258;2023-07-16T08:44:08;92323.94;;;30.94;51.71
20628;BME280;10473;42.734;24.258;2023-07-16T08:46:38;92337.38;;;31.18;50.88
20628;BME280;10473;42.734;24.258;2023-07-16T08:49:10;92329.09;;;31.12;50.83
20628;BME280;10473;42.734;24.258;2023-07-16T08:51:49;92322.34;;;31.33;50.50
20628;BME280;10473;42.734;24.258;2023-07-16T08:54:16;92335.34;;;31.38;50.02
20628;BME280;10473;42.734;24.258;2023-07-16T08:56:48;92332.34;;;31.36;49.14
20628;BME280;10473;42.734;24.258;2023-07-16T08:59:15;92321.81;;;31.29;47.42
20628;BME280;10473;42.734;24.258;2023-07-16T09:01:47;92325.91;;;31.39;48.51
20628;BME280;10473;42.734;24.258;2023-07-16T09:04:19;92328.75;;;31.56;49.19
20628;BME280;10473;42.734;24.258;2023-07-16T09:06:46;92311.88;;;31.06;49.94
20628;BME280;10473;42.734;24.258;2023-07-16T09:09:19;92330.53;;;31.28;49.26
20628;BME280;10473;42.734;24.258;2023-07-16T09:11:50;92329.28;;;31.60;47.64
20628;BME280;10473;42.734;24.258;2023-07-16T09:14:23;92329.13;;;30.47;50.15
20628;BME280;10473;42.734;24.258;2023-07-16T09:16:52;92326.56;;;30.63;52.91
20628;BME280;10473;42.734;24.258;2023-07-16T09:19:24;92324.06;;;30.80;50.95
20628;BME280;10473;42.734;24.258;2023-07-16T09:21:59;92317.75;;;30.99;49.90
20628;BME280;10473;42.734;24.258;2023-07-16T09:24:28;92330.41;;;31.42;48.34
20628;BME280;10473;42.734;24.258;2023-07-16T09:27:02;92323.16;;;31.70;48.29
20628;BME280;10473;42.734;24.258;2023-07-16T09:29:33;92310.88;;;31.66;48.71
20628;BME280;10473;42.734;24.258;2023-07-16T09:32:10;92308.63;;;31.95;50.26
20628;BME280;10473;42.734;24.258;2023-07-16T09:34:38;92318.16;;;32.05;48.36
20628;BME280;10473;42.734;24.258;2023-07-16T09:37:07;92319.66;;;32.06;47.99
20628;BME280;10473;42.734;24.258;2023-07-16T09:39:36;92283.38;;;31.49;48.24
20628;BME280;10473;42.734;24.258;2023-07-16T09:42:08;92268.28;;;31.65;47.75
20628;BME280;10473;42.734;24.258;2023-07-16T09:44:37;92319.25;;;31.82;49.06
20628;BME280;10473;42.734;24.258;2023-07-16T09:47:05;92326.34;;;31.94;46.79
20628;BME280;10473;42.734;24.258;2023-07-16T09:49:37;92318.16;;;32.05;48.97
20628;BME280;10473;42.734;24.258;2023-07-16T09:52:06;92315.19;;;32.03;48.35
20628;BME280;10473;42.734;24.258;2023-07-16T09:54:36;92311.97;;;32.10;48.19
20628;BME280;10473;42.734;24.258;2023-07-16T09:57:10;92317.75;;;31.81;46.88
20628;BME280;10473;42.734;24.258;2023-07-16T09:59:38;92308.38;;;31.31;48.50
20628;BME280;10473;42.734;24.258;2023-07-16T10:02:08;92303.47;;;31.72;48.19
20628;BME280;10473;42.734;24.258;2023-07-16T10:04:38;92308.44;;;32.04;47.58
20628;BME280;10473;42.734;24.258;2023-07-16T10:07:19;92294.13;;;32.31;47.39
20628;BME280;10473;42.734;24.258;2023-07-16T10:09:52;92297.97;;;32.50;44.62
20628;BME280;10473;42.734;24.258;2023-07-16T10:12:24;92300.72;;;32.61;46.65
20628;BME280;10473;42.734;24.258;2023-07-16T10:14:56;92302.56;;;31.86;45.61
20628;BME280;10473;42.734;24.258;2023-07-16T10:17:33;92305.09;;;32.31;46.23
20628;BME280;10473;42.734;24.258;2023-07-16T10:20:05;92310.16;;;32.38;46.45
20628;BME280;10473;42.734;24.258;2023-07-16T10:22:35;92293.06;;;32.18;45.99
20628;BME280;10473;42.734;24.258;2023-07-16T10:25:08;92274.31;;;32.11;46.88
20628;BME280;10473;42.734;24.258;2023-07-16T10:27:38;92310.16;;;32.38;47.29
20628;BME280;10473;42.734;24.258;2023-07-16T10:30:10;92296.06;;;32.25;46.63
20628;BME280;10473;42.734;24.258;2023-07-16T10:32:40;92304.13;;;32.34;47.94
20628;BME280;10473;42.734;24.258;2023-07-16T10:35:09;92297.16;;;32.33;48.12
20628;BME280;10473;42.734;24.258;2023-07-16T10:37:37;92303.44;;;32.50;49.02
20628;BME280;10473;42.734;24.258;2023-07-16T10:40:10;92307.25;;;32.69;45.83
20628;BME280;10473;42.734;24.258;2023-07-16T10:42:41;92301.56;;;32.84;46.18
20628;BME280;10473;42.734;24.258;2023-07-16T10:45:12;92302.63;;;33.03;46.35
20628;BME280;10473;42.734;24.258;2023-07-16T10:47:54;92301.63;;;33.00;46.35
20628;BME280;10473;42.734;24.258;2023-07-16T10:50:24;92287.41;;;33.18;49.59
20628;BME280;10473;42.734;24.258;2023-07-16T10:52:55;92300.72;;;33.47;47.16
20628;BME280;10473;42.734;24.258;2023-07-16T10:55:27;92278.22;;;33.49;47.51
20628;BME280;10473;42.734;24.258;2023-07-16T10:58:08;92294.19;;;33.56;43.75
20628;BME280;10473;42.734;24.258;2023-07-16T11:00:37;92259.97;;;33.35;44.98
20628;BME280;10473;42.734;24.258;2023-07-16T11:03:09;92251.44;;;33.16;45.74
20628;BME280;10473;42.734;24.258;2023-07-16T11:05:37;92248.94;;;33.18;44.91
20628;BME280;10473;42.734;24.258;2023-07-16T11:08:09;92261.94;;;33.23;43.35
20628;BME280;10473;42.734;24.258;2023-07-16T11:10:37;92290.72;;;33.50;43.48
20628;BME280;10473;42.734;24.258;2023-07-16T11:13:07;92289.72;;;33.47;44.11
20628;BME280;10473;42.734;24.258;2023-07-16T11:15:35;92292.97;;;33.51;44.20
20628;BME280;10473;42.734;24.258;2023-07-16T11:18:07;92284.22;;;33.64;44.44
20628;BME280;10473;42.734;24.258;2023-07-16T11:20:38;92247.72;;;33.47;45.42
20628;BME280;10473;42.734;24.258;2023-07-16T11:23:23;92221.97;;;33.28;44.63
20628;BME280;10473;42.734;24.258;2023-07-16T11:26:02;92262.94;;;33.64;43.95
20628;BME280;10473;42.734;24.258;2023-07-16T11:28:39;92263.69;;;33.76;44.75
20628;BME280;10473;42.734;24.258;2023-07-16T11:31:24;92279.66;;;33.99;42.86
20628;BME280;10473;42.734;24.258;2023-07-16T11:33:59;92282.44;;;33.88;43.64
20628;BME280;10473;42.734;24.258;2023-07-16T11:36:30;92240.91;;;33.75;43.17
20628;BME280;10473;42.734;24.258;2023-07-16T11:39:02;92267.41;;;34.11;46.10
20628;BME280;10473;42.734;24.258;2023-07-16T11:41:37;92249.91;;;34.03;43.31
20628;BME280;10473;42.734;24.258;2023-07-16T11:44:07;92203.22;;;33.65;41.03
20628;BME280;10473;42.734;24.258;2023-07-16T11:46:38;92280.63;;;34.18;41.64
20628;BME280;10473;42.734;24.258;2023-07-16T11:49:06;92266.41;;;34.03;41.64
20628;BME280;10473;42.734;24.258;2023-07-16T11:51:35;92272.44;;;33.96;42.69
20628;BME280;10473;42.734;24.258;2023-07-16T11:54:29;92231.44;;;33.65;43.49
20628;BME280;10473;42.734;24.258;2023-07-16T11:56:57;92275.97;;;33.58;43.04
20628;BME280;10473;42.734;24.258;2023-07-16T12:02:42;92274.19;;;32.36;46.66
20628;BME280;10473;42.734;24.258;2023-07-16T12:05:17;92272.88;;;32.21;49.43
20628;BME280;10473;42.734;24.258;2023-07-16T12:07:58;92251.28;;;31.24;50.42
20628;BME280;10473;42.734;24.258;2023-07-16T12:10:32;92194.13;;;30.55;50.85
20628;BME280;10473;42.734;24.258;2023-07-16T12:13:01;92266.25;;;30.52;51.06
20628;BME280;10473;42.734;24.258;2023-07-16T12:15:33;92254.13;;;30.13;52.13
20628;BME280;10473;42.734;24.258;2023-07-16T12:18:07;92254.00;;;30.08;53.40
20628;BME280;10473;42.734;24.258;2023-07-16T12:20:35;92272.13;;;30.05;54.13
20628;BME280;10473;42.734;24.258;2023-07-16T12:23:11;92262.41;;;29.84;53.30
20628;BME280;10473;42.734;24.258;2023-07-16T12:25:43;92206.75;;;29.47;53.48
20628;BME280;10473;42.734;24.258;2023-07-16T12:28:11;92248.72;;;29.64;54.17
20628;BME280;10473;42.734;24.258;2023-07-16T12:30:42;92273.75;;;29.77;53.75
20628;BME280;10473;42.734;24.258;2023-07-16T12:33:13;92246.50;;;29.83;54.36
20628;BME280;10473;42.734;24.258;2023-07-16T12:35:43;92271.78;;;29.98;52.59
20628;BME280;10473;42.734;24.258;2023-07-16T12:38:13;92282.91;;;29.94;53.90
20628;BME280;10473;42.734;24.258;2023-07-16T12:40:43;92276.47;;;30.12;51.90
20628;BME280;10473;42.734;24.258;2023-07-16T12:43:17;92246.72;;;29.99;51.04
20628;BME280;10473;42.734;24.258;2023-07-16T12:45:47;92272.34;;;30.42;51.55
20628;BME280;10473;42.734;24.258;2023-07-16T12:48:22;92202.63;;;29.92;52.25
20628;BME280;10473;42.734;24.258;2023-07-16T12:50:58;92266.28;;;30.58;50.95
20628;BME280;10473;42.734;24.258;2023-07-16T12:53:26;92265.44;;;30.66;50.28
20628;BME280;10473;42.734;24.258;2023-07-16T12:55:59;92230.25;;;30.59;49.67
20628;BME280;10473;42.734;24.258;2023-07-16T12:58:27;92235.59;;;30.68;51.26
20628;BME280;10473;42.734;24.258;2023-07-16T13:00:57;92258.53;;;31.02;50.90
20628;BME280;10473;42.734;24.258;2023-07-16T13:03:25;92234.16;;;31.29;50.33
20628;BME280;10473;42.734;24.258;2023-07-16T13:05:52;92226.22;;;31.31;48.86
20628;BME280;10473;42.734;24.258;2023-07-16T13:08:23;92253.44;;;31.46;48.46